createdAt,value
2019-02-08T00:00:18.663Z,37.15
2019-02-08T00:02:48.197Z,35.25
2019-02-08T00:05:16.197Z,37.93
2019-02-08T00:07:44.110Z,38.67
2019-02-08T00:10:13.302Z,37.28
2019-02-08T00:12:41.236Z,38.08
2019-02-08T00:15:10.783Z,36.85
2019-02-08T00:17:38.714Z,36.08
2019-02-08T00:20:08.258Z,36.50
2019-02-08T00:22:36.203Z,35.05
2019-02-08T00:25:05.598Z,34.92
2019-02-08T00:27:33.753Z,35.05
2019-02-08T00:30:01.678Z,34.63
2019-02-08T00:32:29.671Z,34.10
2019-02-08T00:34:57.601Z,36.73
2019-02-08T00:37:26.494Z,34.63
2019-02-08T00:39:55.491Z,35.75
2019-02-08T00:42:23.418Z,34.67
2019-02-08T00:44:51.347Z,35.50
2019-02-08T00:47:19.274Z,34.00
2019-02-08T00:49:47.203Z,36.60
2019-02-08T00:52:15.139Z,38.70
2019-02-08T00:54:43.288Z,35.95
2019-02-08T00:57:11.215Z,35.50
2019-02-08T00:59:39.138Z,35.78
2019-02-08T01:02:07.072Z,34.75
2019-02-08T01:04:34.993Z,32.28
2019-02-08T01:07:02.950Z,32.78
2019-02-08T01:09:31.216Z,31.45
2019-02-08T01:11:59.144Z,30.17
2019-02-08T01:14:27.079Z,30.43
2019-02-08T01:16:55.023Z,32.00
2019-02-08T01:19:22.995Z,30.27
2019-02-08T01:21:50.951Z,30.55
2019-02-08T01:24:18.895Z,31.37
2019-02-08T01:26:46.812Z,30.43
2019-02-08T01:29:14.753Z,27.45
2019-02-08T01:31:42.659Z,29.40
2019-02-08T01:34:10.593Z,30.25
2019-02-08T01:36:38.510Z,31.45
2019-02-08T01:39:06.520Z,30.32
2019-02-08T01:41:34.512Z,29.77
2019-02-08T01:44:02.439Z,30.15
2019-02-08T01:46:30.363Z,28.52
2019-02-08T01:48:58.293Z,29.55
2019-02-08T01:51:26.213Z,29.25
2019-02-08T01:53:54.383Z,29.57
2019-02-08T01:56:22.307Z,29.72
2019-02-08T01:58:50.223Z,28.32
2019-02-08T02:01:18.150Z,28.50
2019-02-08T02:03:46.316Z,28.25
2019-02-08T02:06:14.242Z,27.07
2019-02-08T02:08:42.176Z,28.10
2019-02-08T02:11:10.103Z,23.85
2019-02-08T02:13:38.023Z,23.77
2019-02-08T02:16:05.956Z,21.62
2019-02-08T02:18:33.874Z,20.30
2019-02-08T02:21:01.795Z,18.42
2019-02-08T02:23:29.772Z,16.48
2019-02-08T02:25:57.711Z,17.55
2019-02-08T02:28:25.640Z,17.70
2019-02-08T02:30:53.568Z,20.08
2019-02-08T02:33:21.731Z,23.40
2019-02-08T02:35:49.653Z,23.40
2019-02-08T02:38:17.657Z,22.32
2019-02-08T02:40:45.575Z,23.65
2019-02-08T02:43:13.524Z,21.70
2019-02-08T02:45:41.587Z,21.48
2019-02-08T02:48:10.381Z,23.35
2019-02-08T02:50:38.549Z,21.57
2019-02-08T02:53:06.493Z,24.60
2019-02-08T02:55:35.611Z,23.30
2019-02-08T02:58:03.597Z,21.80
2019-02-08T03:00:33.156Z,20.65
2019-02-08T03:03:01.311Z,18.40
2019-02-08T03:05:29.264Z,18.20
2019-02-08T03:07:57.411Z,17.87
2019-02-08T03:10:25.339Z,18.77
2019-02-08T03:12:53.267Z,17.98
2019-02-08T03:15:22.114Z,17.42
2019-02-08T03:17:50.331Z,16.73
2019-02-08T03:20:18.851Z,16.35
2019-02-08T03:22:47.843Z,16.30
2019-02-08T03:25:18.231Z,17.42
2019-02-08T03:27:46.460Z,16.00
2019-02-08T03:30:17.011Z,13.98
2019-02-08T03:32:46.132Z,14.63
2019-02-08T03:35:15.628Z,15.93
2019-02-08T03:37:43.558Z,15.13
2019-02-08T03:40:17.144Z,15.40
2019-02-08T03:42:45.078Z,16.10
2019-02-08T03:45:13.000Z,16.30
2019-02-08T03:47:40.925Z,14.93
2019-02-08T03:50:10.716Z,14.58
2019-02-08T03:52:38.873Z,15.43
2019-02-08T03:55:08.808Z,15.72
2019-02-08T03:57:36.729Z,16.05
2019-02-08T04:00:06.283Z,16.05
2019-02-08T04:02:34.199Z,15.10
2019-02-08T04:05:02.368Z,15.30
2019-02-08T04:07:30.294Z,15.68
2019-02-08T04:09:58.235Z,13.83
2019-02-08T04:12:26.155Z,13.70
2019-02-08T04:14:54.308Z,13.00
2019-02-08T04:17:22.234Z,13.58
2019-02-08T04:19:50.167Z,14.33
2019-02-08T04:22:18.102Z,13.48
2019-02-08T04:24:46.024Z,14.95
2019-02-08T04:27:13.950Z,13.75
2019-02-08T04:29:41.870Z,13.75
2019-02-08T04:32:09.795Z,12.95
2019-02-08T04:34:37.948Z,12.47
2019-02-08T04:37:05.870Z,13.22
2019-02-08T04:39:34.069Z,13.53
2019-02-08T04:42:01.999Z,13.60
2019-02-08T04:44:29.927Z,13.62
2019-02-08T04:46:57.866Z,14.35
2019-02-08T04:49:25.784Z,15.50
2019-02-08T04:51:53.940Z,16.77
2019-02-08T04:54:21.871Z,15.63
2019-02-08T04:56:50.019Z,15.45
2019-02-08T04:59:17.950Z,15.50
2019-02-08T05:01:46.466Z,14.70
2019-02-08T05:04:14.398Z,16.12
2019-02-08T05:06:42.387Z,14.73
2019-02-08T05:09:10.328Z,14.38
2019-02-08T05:11:38.264Z,14.15
2019-02-08T05:14:06.178Z,15.60
2019-02-08T05:16:34.107Z,14.80
2019-02-08T05:19:02.026Z,15.10
2019-02-08T05:21:29.951Z,15.65
2019-02-08T05:23:57.870Z,14.45
2019-02-08T05:26:25.803Z,15.80
2019-02-08T05:28:53.719Z,13.90
2019-02-08T05:31:21.886Z,14.18
2019-02-08T05:33:51.440Z,13.65
2019-02-08T05:36:19.607Z,13.22
2019-02-08T05:38:47.536Z,13.98
2019-02-08T05:41:15.467Z,14.18
2019-02-08T05:43:43.386Z,13.20
2019-02-08T05:46:11.331Z,14.38
2019-02-08T05:48:39.311Z,13.83
2019-02-08T05:51:07.236Z,13.28
2019-02-08T05:53:35.166Z,13.03
2019-02-08T05:56:03.095Z,14.00
2019-02-08T05:58:31.051Z,13.50
2019-02-08T06:00:59.166Z,15.78
2019-02-08T06:03:27.095Z,13.80
2019-02-08T06:05:55.247Z,13.90
2019-02-08T06:08:23.180Z,13.50
2019-02-08T06:10:51.101Z,13.38
2019-02-08T06:13:19.032Z,13.05
2019-02-08T06:15:46.958Z,13.93
2019-02-08T06:18:14.883Z,13.80
2019-02-08T06:20:42.811Z,13.93
2019-02-08T06:23:10.958Z,14.40
2019-02-08T06:25:38.895Z,14.45
2019-02-08T06:28:06.979Z,14.03
2019-02-08T06:30:34.899Z,14.23
2019-02-08T06:33:02.899Z,14.63
2019-02-08T06:35:30.819Z,14.93
2019-02-08T06:37:58.763Z,14.47
2019-02-08T06:40:28.307Z,14.13
2019-02-08T06:42:56.241Z,14.95
2019-02-08T06:45:24.836Z,14.63
2019-02-08T06:47:52.759Z,14.63
2019-02-08T06:50:24.750Z,14.50
2019-02-08T06:52:52.669Z,15.28
2019-02-08T06:55:20.667Z,15.35
2019-02-08T06:57:50.226Z,16.40
2019-02-08T07:00:21.370Z,16.07
2019-02-08T07:03:07.648Z,14.73
2019-02-08T07:05:45.871Z,14.15
2019-02-08T07:08:31.083Z,14.90
2019-02-08T07:11:03.091Z,14.68
2019-02-08T07:13:35.812Z,15.65
2019-02-08T07:16:14.605Z,13.85
2019-02-08T07:18:44.428Z,14.93
2019-02-08T07:21:16.660Z,15.75
2019-02-08T07:24:04.318Z,14.98
2019-02-08T07:26:37.087Z,15.10
2019-02-08T07:29:09.586Z,16.07
2019-02-08T07:31:41.559Z,14.95
2019-02-08T07:34:14.050Z,15.75
2019-02-08T07:36:43.843Z,14.60
2019-02-08T07:39:13.580Z,15.25
2019-02-08T07:41:45.780Z,16.62
2019-02-08T07:44:27.567Z,14.87
2019-02-08T07:46:57.319Z,14.83
2019-02-08T07:49:27.250Z,14.85
2019-02-08T07:51:56.837Z,14.98
2019-02-08T07:54:30.284Z,14.63
2019-02-08T07:57:09.623Z,14.63
2019-02-08T07:59:51.402Z,14.83
2019-02-08T08:02:20.959Z,13.45
2019-02-08T08:04:50.527Z,14.90
2019-02-08T08:07:32.062Z,14.07
2019-02-08T08:10:16.647Z,12.40
2019-02-08T08:12:46.236Z,13.08
2019-02-08T08:15:28.664Z,13.72
2019-02-08T08:18:04.320Z,12.23
2019-02-08T08:20:49.324Z,12.85
2019-02-08T08:23:18.907Z,11.48
2019-02-08T08:26:00.999Z,12.53
2019-02-08T08:28:33.499Z,12.07
2019-02-08T08:31:05.763Z,12.60
2019-02-08T08:33:38.247Z,13.45
2019-02-08T08:36:13.883Z,11.75
2019-02-08T08:38:46.479Z,12.78
2019-02-08T08:41:28.347Z,11.90
2019-02-08T08:44:04.105Z,12.75
2019-02-08T08:46:49.063Z,12.28
2019-02-08T08:49:24.779Z,13.00
2019-02-08T08:52:02.639Z,12.10
2019-02-08T08:54:35.249Z,11.35
2019-02-08T08:57:11.079Z,12.98
2019-02-08T08:59:49.632Z,11.83
2019-02-08T09:02:28.363Z,12.80
2019-02-08T09:04:58.143Z,12.70
2019-02-08T09:07:36.664Z,12.35
2019-02-08T09:10:09.145Z,13.13
2019-02-08T09:12:41.403Z,13.55
2019-02-08T09:15:13.947Z,13.50
2019-02-08T09:18:00.070Z,13.03
2019-02-08T09:20:46.172Z,12.30
2019-02-08T09:23:22.687Z,13.35
2019-02-08T09:25:58.407Z,12.88
2019-02-08T09:28:37.184Z,13.05
2019-02-08T09:31:23.411Z,12.78
2019-02-08T09:33:52.971Z,11.93
2019-02-08T09:36:31.551Z,12.95
2019-02-08T09:39:19.128Z,11.85
2019-02-08T09:41:51.555Z,13.10
2019-02-08T09:44:38.786Z,11.18
2019-02-08T09:47:27.191Z,11.53
2019-02-08T09:50:11.987Z,11.75
2019-02-08T09:52:47.603Z,11.88
2019-02-08T09:55:33.703Z,12.43
2019-02-08T09:58:03.278Z,11.48
2019-02-08T10:00:49.547Z,11.95
2019-02-08T10:03:19.359Z,11.10
2019-02-08T10:06:05.407Z,11.68
2019-02-08T10:08:58.132Z,10.48
2019-02-08T10:11:33.643Z,10.65
2019-02-08T10:14:06.236Z,11.08
2019-02-08T10:16:38.675Z,10.80
2019-02-08T10:19:11.137Z,10.78
2019-02-08T10:21:47.788Z,9.95
2019-02-08T10:24:20.535Z,10.38
2019-02-08T10:26:56.136Z,9.95
2019-02-08T10:29:28.515Z,10.03
2019-02-08T10:32:10.309Z,9.43
2019-02-08T10:34:39.858Z,9.83
2019-02-08T10:37:12.297Z,9.20
2019-02-08T10:39:57.829Z,9.35
2019-02-08T10:42:42.129Z,8.30
2019-02-08T10:45:23.634Z,8.80
2019-02-08T10:48:09.960Z,9.13
2019-02-08T10:50:48.472Z,7.62
2019-02-08T10:53:34.934Z,8.20
2019-02-08T10:56:14.932Z,8.30
2019-02-08T10:58:56.567Z,8.05
2019-02-08T11:01:30.047Z,8.40
2019-02-08T11:04:18.011Z,7.92
2019-02-08T11:06:56.663Z,7.75
2019-02-08T11:09:32.386Z,7.50
2019-02-08T11:12:20.195Z,7.75
2019-02-08T11:15:06.499Z,8.08
2019-02-08T11:17:54.836Z,7.50
2019-02-08T11:20:22.751Z,7.28
2019-02-08T11:22:50.919Z,7.37
2019-02-08T11:25:18.826Z,7.70
2019-02-08T11:27:46.991Z,7.70
2019-02-08T11:30:16.419Z,7.40
2019-02-08T11:32:44.585Z,7.37
2019-02-08T11:35:12.675Z,7.00
2019-02-08T11:37:40.609Z,6.75
2019-02-08T11:40:13.403Z,7.08
2019-02-08T11:42:41.576Z,7.10
2019-02-08T11:45:11.111Z,7.03
2019-02-08T11:47:39.031Z,6.87
2019-02-08T11:50:08.597Z,7.30
2019-02-08T11:52:36.574Z,7.42
2019-02-08T11:55:05.463Z,7.10
2019-02-08T11:57:34.367Z,6.75
2019-02-08T12:00:03.177Z,6.40
2019-02-08T12:02:31.376Z,6.33
2019-02-08T12:04:59.543Z,7.20
2019-02-08T12:07:27.737Z,6.30
2019-02-08T12:09:55.863Z,6.80
2019-02-08T12:12:25.024Z,6.87
2019-02-08T12:14:52.911Z,5.85
2019-02-08T12:17:20.834Z,5.25
2019-02-08T12:19:48.746Z,5.78
2019-02-08T12:22:16.671Z,5.90
2019-02-08T12:24:44.582Z,5.55
2019-02-08T12:27:12.736Z,5.58
2019-02-08T12:29:40.905Z,5.25
2019-02-08T12:32:08.827Z,5.22
2019-02-08T12:34:36.751Z,4.87
2019-02-08T12:37:04.908Z,5.72
2019-02-08T12:39:32.845Z,5.05
2019-02-08T12:42:00.755Z,5.30
2019-02-08T12:44:29.015Z,5.60
2019-02-08T12:46:56.948Z,5.40
2019-02-08T12:49:24.888Z,5.05
2019-02-08T12:51:52.799Z,5.75
2019-02-08T12:54:21.479Z,5.40
2019-02-08T12:56:49.655Z,5.20
2019-02-08T12:59:17.581Z,5.08
2019-02-08T13:01:46.816Z,5.37
2019-02-08T13:04:14.753Z,5.20
2019-02-08T13:06:42.907Z,5.67
2019-02-08T13:09:10.848Z,5.17
2019-02-08T13:11:39.063Z,5.28
2019-02-08T13:14:07.011Z,4.87
2019-02-08T13:16:35.369Z,5.20
2019-02-08T13:19:03.297Z,4.80
2019-02-08T13:21:31.236Z,4.47
2019-02-08T13:23:59.475Z,4.87
2019-02-08T13:26:27.362Z,4.80
2019-02-08T13:28:55.288Z,4.37
2019-02-08T13:31:23.208Z,4.15
2019-02-08T13:33:51.139Z,4.75
2019-02-08T13:36:19.050Z,4.12
2019-02-08T13:38:47.451Z,3.98
2019-02-08T13:41:15.374Z,4.12
2019-02-08T13:43:43.292Z,4.10
2019-02-08T13:46:12.240Z,3.98
2019-02-08T13:48:40.156Z,4.00
2019-02-08T13:51:08.073Z,4.03
2019-02-08T13:53:36.395Z,3.60
2019-02-08T13:56:04.401Z,3.72
2019-02-08T13:58:32.326Z,4.30
2019-02-08T14:01:00.273Z,3.33
2019-02-08T14:03:28.195Z,3.02
2019-02-08T14:05:56.340Z,2.92
2019-02-08T14:08:24.273Z,3.00
2019-02-08T14:10:52.208Z,3.08
2019-02-08T14:13:20.371Z,2.70
2019-02-08T14:15:48.299Z,2.80
2019-02-08T14:18:16.224Z,3.52
2019-02-08T14:20:44.135Z,2.92
2019-02-08T14:23:12.063Z,2.70
2019-02-08T14:25:39.983Z,3.00
2019-02-08T14:28:07.923Z,2.60
2019-02-08T14:30:37.563Z,2.87
2019-02-08T14:33:05.920Z,3.22
2019-02-08T14:35:33.941Z,3.00
2019-02-08T14:38:02.495Z,2.80
2019-02-08T14:40:30.423Z,2.80
2019-02-08T14:42:58.336Z,2.30
2019-02-08T14:45:26.275Z,2.27
2019-02-08T14:47:54.222Z,2.85
2019-02-08T14:50:23.767Z,2.12
2019-02-08T14:52:51.687Z,2.05
2019-02-08T14:55:19.603Z,2.27
2019-02-08T14:57:47.520Z,2.50
2019-02-08T15:00:16.669Z,2.25
2019-02-08T15:02:44.760Z,3.20
2019-02-08T15:05:14.471Z,2.77
2019-02-08T15:07:42.659Z,2.08
2019-02-08T15:10:14.994Z,2.20
2019-02-08T15:12:42.908Z,2.02
2019-02-08T15:15:11.592Z,2.30
2019-02-08T15:17:39.502Z,2.08
2019-02-08T15:20:15.633Z,2.12
2019-02-08T15:22:43.547Z,1.80
2019-02-08T15:25:11.684Z,2.10
2019-02-08T15:27:39.603Z,2.42
2019-02-08T15:30:18.323Z,2.35
2019-02-08T15:32:46.550Z,2.22
2019-02-08T15:35:16.331Z,1.87
2019-02-08T15:37:44.242Z,2.35
2019-02-08T15:40:13.792Z,2.27
2019-02-08T15:42:41.707Z,2.35
2019-02-08T15:45:11.259Z,2.17
2019-02-08T15:47:39.248Z,2.12
2019-02-08T15:50:08.127Z,1.80
2019-02-08T15:52:37.285Z,1.92
2019-02-08T15:55:12.753Z,2.27
2019-02-08T15:57:42.152Z,2.67
2019-02-08T16:00:11.707Z,2.40
2019-02-08T16:02:39.632Z,2.08
2019-02-08T16:05:09.171Z,1.62
2019-02-08T16:07:37.095Z,2.30
2019-02-08T16:10:06.183Z,1.70
2019-02-08T16:12:34.104Z,2.25
2019-02-08T16:15:02.034Z,2.00
2019-02-08T16:17:30.026Z,2.20
2019-02-08T16:19:57.942Z,1.92
2019-02-08T16:22:25.863Z,2.10
2019-02-08T16:24:53.771Z,2.50
2019-02-08T16:27:21.683Z,2.90
2019-02-08T16:29:49.987Z,3.60
2019-02-08T16:32:18.128Z,2.47
2019-02-08T16:34:46.275Z,2.60
2019-02-08T16:37:14.198Z,2.45
2019-02-08T16:39:42.110Z,2.50
2019-02-08T16:42:10.024Z,3.02
2019-02-08T16:44:37.959Z,3.95
2019-02-08T16:47:06.131Z,3.10
2019-02-08T16:49:34.048Z,2.40
2019-02-08T16:52:01.959Z,2.62
2019-02-08T16:54:30.111Z,2.58
2019-02-08T16:56:58.030Z,2.30
2019-02-08T16:59:25.972Z,2.58
2019-02-08T17:01:53.888Z,2.40
2019-02-08T17:04:21.806Z,2.35
2019-02-08T17:06:49.722Z,2.37
2019-02-08T17:09:17.989Z,2.40
2019-02-08T17:11:45.879Z,2.47
2019-02-08T17:14:13.797Z,2.58
2019-02-08T17:16:41.715Z,2.72
2019-02-08T17:19:09.632Z,2.25
2019-02-08T17:21:37.540Z,2.67
2019-02-08T17:24:05.463Z,3.00
2019-02-08T17:26:33.611Z,2.58
2019-02-08T17:29:01.526Z,2.52
2019-02-08T17:31:29.516Z,2.45
2019-02-08T17:33:57.952Z,2.40
2019-02-08T17:36:25.915Z,2.12
2019-02-08T17:38:53.834Z,2.35
2019-02-08T17:41:21.756Z,2.08
2019-02-08T17:43:49.674Z,2.62
2019-02-08T17:46:17.587Z,2.27
2019-02-08T17:48:45.507Z,2.47
2019-02-08T17:51:13.426Z,2.50
2019-02-08T17:53:42.321Z,2.62
2019-02-08T17:56:10.218Z,2.30
2019-02-08T17:58:38.139Z,2.37
2019-02-08T18:01:06.281Z,2.58
2019-02-08T18:03:34.199Z,2.30
2019-02-08T18:06:02.118Z,2.83
2019-02-08T18:08:30.288Z,2.85
2019-02-08T18:10:58.203Z,2.83
2019-02-08T18:13:26.119Z,2.72
2019-02-08T18:15:54.038Z,3.33
2019-02-08T18:18:21.959Z,2.85
2019-02-08T18:20:54.171Z,2.77
2019-02-08T18:23:22.387Z,3.12
2019-02-08T18:25:50.307Z,2.98
2019-02-08T18:28:18.222Z,3.45
2019-02-08T18:30:46.439Z,3.37
2019-02-08T18:33:14.366Z,4.03
2019-02-08T18:35:42.566Z,3.65
2019-02-08T18:38:10.487Z,3.75
2019-02-08T18:40:38.483Z,3.70
2019-02-08T18:43:06.562Z,3.50
2019-02-08T18:45:35.331Z,3.37
2019-02-08T18:48:03.313Z,3.02
2019-02-08T18:50:35.347Z,3.55
2019-02-08T18:53:03.436Z,3.58
2019-02-08T18:55:31.584Z,4.15
2019-02-08T18:57:59.738Z,3.58
2019-02-08T19:00:29.155Z,3.77
2019-02-08T19:02:57.702Z,3.85
2019-02-08T19:05:25.671Z,3.42
2019-02-08T19:07:53.586Z,3.92
2019-02-08T19:10:22.147Z,3.62
2019-02-08T19:12:50.071Z,3.50
2019-02-08T19:15:18.973Z,3.62
2019-02-08T19:17:47.926Z,3.52
2019-02-08T19:20:22.616Z,4.03
2019-02-08T19:22:50.758Z,3.77
2019-02-08T19:25:20.319Z,5.65
2019-02-08T19:27:48.222Z,3.80
2019-02-08T19:30:19.485Z,3.95
2019-02-08T19:32:47.540Z,3.62
2019-02-08T19:35:15.828Z,3.77
2019-02-08T19:37:43.756Z,3.62
2019-02-08T19:40:16.259Z,3.40
2019-02-08T19:42:44.177Z,3.47
2019-02-08T19:45:13.378Z,3.60
2019-02-08T19:47:41.279Z,3.70
2019-02-08T19:50:10.822Z,3.90
2019-02-08T19:52:38.818Z,3.25
2019-02-08T19:55:13.120Z,3.25
2019-02-08T19:57:41.295Z,4.00
2019-02-08T20:00:11.119Z,3.40
2019-02-08T20:02:39.106Z,3.83
2019-02-08T20:05:08.672Z,3.77
2019-02-08T20:07:36.579Z,3.87
2019-02-08T20:10:06.138Z,3.72
2019-02-08T20:12:34.288Z,4.53
2019-02-08T20:15:02.211Z,5.37
2019-02-08T20:17:30.139Z,3.67
2019-02-08T20:19:59.022Z,3.50
2019-02-08T20:22:26.949Z,4.22
2019-02-08T20:24:54.891Z,3.72
2019-02-08T20:27:22.808Z,8.70
2019-02-08T20:29:50.740Z,5.80
2019-02-08T20:32:18.655Z,3.87
2019-02-08T20:34:46.583Z,3.92
2019-02-08T20:37:14.495Z,4.33
2019-02-08T20:39:42.416Z,3.95
2019-02-08T20:42:10.338Z,3.90
2019-02-08T20:44:38.256Z,4.15
2019-02-08T20:47:06.503Z,4.30
2019-02-08T20:49:34.422Z,3.70
2019-02-08T20:52:02.323Z,3.10
2019-02-08T20:54:30.276Z,3.92
2019-02-08T20:56:59.159Z,4.12
2019-02-08T20:59:27.187Z,3.87
2019-02-08T21:01:55.115Z,4.05
2019-02-08T21:04:23.336Z,4.12
2019-02-08T21:06:51.255Z,4.85
2019-02-08T21:09:19.166Z,4.10
2019-02-08T21:11:47.103Z,4.20
2019-02-08T21:14:15.020Z,4.45
2019-02-08T21:16:42.937Z,4.40
2019-02-08T21:19:10.856Z,4.08
2019-02-08T21:21:38.793Z,4.40
2019-02-08T21:24:06.698Z,4.17
2019-02-08T21:26:35.000Z,4.12
2019-02-08T21:29:02.915Z,3.87
2019-02-08T21:31:30.834Z,4.35
2019-02-08T21:33:58.762Z,4.12
2019-02-08T21:36:26.682Z,4.50
2019-02-08T21:38:54.614Z,4.58
2019-02-08T21:41:22.518Z,4.03
2019-02-08T21:43:50.443Z,3.90
2019-02-08T21:46:18.695Z,4.90
2019-02-08T21:48:46.611Z,4.00
2019-02-08T21:51:14.839Z,4.87
2019-02-08T21:53:42.779Z,5.97
2019-02-08T21:56:10.711Z,5.35
2019-02-08T21:58:38.951Z,3.70
2019-02-08T22:01:07.943Z,4.90
2019-02-08T22:03:36.219Z,4.03
2019-02-08T22:06:04.628Z,4.28
2019-02-08T22:08:32.695Z,4.70
2019-02-08T22:11:00.620Z,5.65
2019-02-08T22:13:28.527Z,4.50
2019-02-08T22:15:56.450Z,4.55
2019-02-08T22:18:24.361Z,5.03
2019-02-08T22:20:52.559Z,4.87
2019-02-08T22:23:20.486Z,4.90
2019-02-08T22:25:48.475Z,5.00
2019-02-08T22:28:16.692Z,5.03
2019-02-08T22:30:44.872Z,4.67
2019-02-08T22:33:12.798Z,4.97
2019-02-08T22:35:41.010Z,5.17
2019-02-08T22:38:09.168Z,4.67
2019-02-08T22:40:37.223Z,4.58
2019-02-08T22:43:05.419Z,4.42
2019-02-08T22:45:34.306Z,5.03
2019-02-08T22:48:02.511Z,4.47
2019-02-08T22:50:30.419Z,4.12
2019-02-08T22:52:58.667Z,4.17
2019-02-08T22:55:27.546Z,4.37
2019-02-08T22:57:55.472Z,4.70
2019-02-08T23:00:34.995Z,4.55
2019-02-08T23:03:05.004Z,5.20
2019-02-08T23:05:33.167Z,5.10
2019-02-08T23:08:01.085Z,7.58
2019-02-08T23:10:28.999Z,4.53
2019-02-08T23:12:56.996Z,4.37
2019-02-08T23:15:24.979Z,4.50
2019-02-08T23:17:52.966Z,4.08
2019-02-08T23:20:20.871Z,3.70
2019-02-08T23:22:48.799Z,4.45
2019-02-08T23:25:17.052Z,3.60
2019-02-08T23:27:45.048Z,4.40
2019-02-08T23:30:14.591Z,4.00
2019-02-08T23:32:42.514Z,4.05
2019-02-08T23:35:10.804Z,4.30
2019-02-08T23:37:38.731Z,4.37
2019-02-08T23:40:07.864Z,4.58
2019-02-08T23:42:36.143Z,4.28
2019-02-08T23:45:11.265Z,4.53
2019-02-08T23:47:39.264Z,4.60
2019-02-08T23:50:08.802Z,4.30
2019-02-08T23:52:37.040Z,4.20
2019-02-08T23:55:06.230Z,4.33
2019-02-08T23:57:34.153Z,4.30
